Terminal Aerodrome Forecast
Issued by NWS

Home | Current Version | Previous Version | Graphics & Text | Print | Product List | Glossary On
Versions: 1 2 3 4 5 6 7 8 9 10 11 12 13 14 15 16 17 18 19 20 21 22 23 24
000
FTUS41 KCLE 270200 AAA
TAFFDY
TAF AMD
KFDY 270200Z 2702/2724 20010KT P6SM VCSH OVC050
      TEMPO 2702/2704 5SM -SHRA BR OVC030
     FM270500 20004KT 6SM BR BKN012
     FM270900 23006KT 3SM BR OVC008
     FM271500 24008KT P6SM BKN025
     FM271800 22006KT P6SM BKN050 OVC100=

USA.gov is the U.S. government's official web portal to all federal, state and local government web resources and services.